Terminal Aerodrome Forecast
Issued by NWS

Home | Current Version | Previous Version | Text Only | Print | Product List | Glossary On
Versions: 1 2 3 4 5 6 7 8 9 10 11 12 13 14 15 16 17 18 19 20 21 22 23 24 25 26 27 28 29 30 31 32 33 34
000
FTUS43 KGRB 240520
TAFRHI
TAF
KRHI 240520Z 2406/2506 14004KT 5SM -SHRA BR SCT004 OVC015
      TEMPO 2406/2410 2SM -SHRA BR BKN004
     FM241100 15004KT 3SM BR OVC008
     FM241200 17004KT 5SM BR OVC005
     FM241500 16005KT P6SM SHRA OVC021
     FM242300 30005KT P6SM SHRA OVC040
     FM250300 31005G15KT P6SM SHRA OVC025=

USA.gov is the U.S. government's official web portal to all federal, state and local government web resources and services.